createdAt,value
2019-02-12T00:00:25.856Z,5.93
2019-02-12T00:02:54.648Z,7.23
2019-02-12T00:05:22.917Z,6.10
2019-02-12T00:07:52.611Z,7.43
2019-02-12T00:10:20.976Z,7.63
2019-02-12T00:12:49.360Z,6.60
2019-02-12T00:15:17.962Z,6.00
2019-02-12T00:17:46.446Z,6.63
2019-02-12T00:20:35.535Z,6.50
2019-02-12T00:23:03.989Z,8.27
2019-02-12T00:25:32.365Z,6.30
2019-02-12T00:28:00.725Z,7.80
2019-02-12T00:30:29.001Z,6.40
2019-02-12T00:32:58.075Z,7.90
2019-02-12T00:35:26.434Z,6.87
2019-02-12T00:37:55.171Z,6.13
2019-02-12T00:40:23.517Z,7.90
2019-02-12T00:42:51.830Z,7.50
2019-02-12T00:45:20.610Z,7.27
2019-02-12T00:47:48.987Z,7.23
2019-02-12T00:50:17.672Z,6.63
2019-02-12T00:52:46.008Z,7.40
2019-02-12T00:55:14.355Z,8.97
2019-02-12T00:57:42.875Z,8.37
2019-02-12T01:00:14.866Z,7.63
2019-02-12T01:02:43.466Z,7.90
2019-02-12T01:05:12.235Z,8.90
2019-02-12T01:07:40.534Z,9.97
2019-02-12T01:10:10.595Z,7.47
2019-02-12T01:12:38.984Z,7.53
2019-02-12T01:15:09.089Z,9.10
2019-02-12T01:17:37.800Z,7.43
2019-02-12T01:20:08.333Z,9.80
2019-02-12T01:22:36.679Z,7.37
2019-02-12T01:25:05.875Z,8.40
2019-02-12T01:27:34.152Z,7.57
2019-02-12T01:30:02.531Z,7.23
2019-02-12T01:32:30.938Z,7.70
2019-02-12T01:34:59.204Z,6.67
2019-02-12T01:37:27.559Z,9.00
2019-02-12T01:39:56.371Z,7.17
2019-02-12T01:42:24.622Z,8.83
2019-02-12T01:44:52.995Z,6.53
2019-02-12T01:47:21.601Z,7.90
2019-02-12T01:49:49.901Z,8.57
2019-02-12T01:52:18.229Z,7.37
2019-02-12T01:54:46.837Z,7.10
2019-02-12T01:57:15.122Z,7.20
2019-02-12T01:59:43.412Z,7.13
2019-02-12T02:02:12.065Z,8.27
2019-02-12T02:04:40.419Z,7.87
2019-02-12T02:07:09.517Z,7.80
2019-02-12T02:09:38.226Z,8.20
2019-02-12T02:12:06.912Z,9.10
2019-02-12T02:14:35.204Z,8.07
2019-02-12T02:17:03.586Z,7.83
2019-02-12T02:19:33.019Z,8.53
2019-02-12T02:22:01.757Z,8.73
2019-02-12T02:24:30.045Z,9.00
2019-02-12T02:26:58.332Z,8.87
2019-02-12T02:29:26.627Z,9.33
2019-02-12T02:31:54.911Z,9.60
2019-02-12T02:34:23.355Z,9.40
2019-02-12T02:36:53.046Z,10.60
2019-02-12T02:39:21.315Z,10.93
2019-02-12T02:41:49.895Z,10.37
2019-02-12T02:44:18.178Z,10.00
2019-02-12T02:46:46.624Z,11.50
2019-02-12T02:49:15.225Z,10.67
2019-02-12T02:51:43.538Z,10.63
2019-02-12T02:54:12.397Z,11.60
2019-02-12T02:56:40.973Z,11.20
2019-02-12T02:59:09.631Z,13.17
2019-02-12T03:01:38.096Z,11.50
2019-02-12T03:04:06.460Z,11.90
2019-02-12T03:06:34.779Z,14.53
2019-02-12T03:09:04.705Z,13.50
2019-02-12T03:11:33.462Z,13.87
2019-02-12T03:14:02.197Z,13.97
2019-02-12T03:16:30.450Z,14.27
2019-02-12T03:18:58.739Z,16.73
2019-02-12T03:21:27.075Z,17.20
2019-02-12T03:23:55.373Z,18.37
2019-02-12T03:26:23.682Z,16.60
2019-02-12T03:28:52.059Z,18.50
2019-02-12T03:31:20.686Z,18.57
2019-02-12T03:33:49.505Z,20.43
2019-02-12T03:36:17.814Z,20.00
2019-02-12T03:38:46.453Z,19.70
2019-02-12T03:41:14.762Z,19.83
2019-02-12T03:43:43.040Z,20.50
2019-02-12T03:46:11.398Z,19.77
2019-02-12T03:48:39.735Z,20.57
2019-02-12T03:51:08.437Z,19.33
2019-02-12T03:53:36.726Z,20.67
2019-02-12T03:56:05.171Z,20.00
2019-02-12T03:58:33.475Z,23.13
2019-02-12T04:01:01.778Z,24.13
2019-02-12T04:03:30.539Z,23.50
2019-02-12T04:05:59.295Z,23.20
2019-02-12T04:08:27.701Z,20.87
2019-02-12T04:10:55.971Z,25.20
2019-02-12T04:13:24.768Z,21.20
2019-02-12T04:15:53.140Z,22.07
2019-02-12T04:18:21.589Z,22.10
2019-02-12T04:20:49.870Z,22.73
2019-02-12T04:23:18.180Z,24.10
2019-02-12T04:25:46.854Z,23.10
2019-02-12T04:28:16.868Z,24.30
2019-02-12T04:30:45.385Z,21.80
2019-02-12T04:33:13.802Z,25.03
2019-02-12T04:35:43.391Z,25.37
2019-02-12T04:38:11.679Z,24.60
2019-02-12T04:40:39.971Z,23.63
2019-02-12T04:43:08.346Z,24.20
2019-02-12T04:45:37.037Z,24.57
2019-02-12T04:48:06.903Z,26.80
2019-02-12T04:50:35.118Z,24.10
2019-02-12T04:53:03.492Z,28.40
2019-02-12T04:55:31.854Z,24.37
2019-02-12T04:58:01.748Z,26.80
2019-02-12T05:00:30.172Z,26.30
2019-02-12T05:02:58.525Z,24.67
2019-02-12T05:05:26.928Z,27.13
2019-02-12T05:07:55.294Z,26.30
2019-02-12T05:10:28.497Z,27.73
2019-02-12T05:12:58.178Z,27.63
2019-02-12T05:15:26.785Z,28.00
2019-02-12T05:17:55.133Z,27.30
2019-02-12T05:20:23.509Z,27.10
2019-02-12T05:22:51.904Z,25.13
2019-02-12T05:25:20.576Z,25.48
2019-02-12T05:27:49.288Z,26.10
2019-02-12T05:30:17.939Z,24.40
2019-02-12T05:32:46.316Z,26.80
2019-02-12T05:35:14.624Z,24.70
2019-02-12T05:37:42.927Z,26.07
2019-02-12T05:40:11.684Z,27.67
2019-02-12T05:42:40.026Z,28.30
2019-02-12T05:45:11.509Z,25.67
2019-02-12T05:47:39.786Z,25.93
2019-02-12T05:50:09.641Z,25.37
2019-02-12T05:52:38.082Z,24.63
2019-02-12T05:55:06.831Z,25.67
2019-02-12T05:57:35.307Z,26.70
2019-02-12T06:00:05.119Z,26.07
2019-02-12T06:02:33.605Z,24.33
2019-02-12T06:05:01.897Z,25.87
2019-02-12T06:07:30.177Z,23.40
2019-02-12T06:09:58.883Z,23.93
2019-02-12T06:12:28.952Z,24.70
2019-02-12T06:14:57.239Z,24.83
2019-02-12T06:17:25.912Z,24.83
2019-02-12T06:19:54.287Z,23.43
2019-02-12T06:22:22.581Z,22.30
2019-02-12T06:24:50.939Z,22.97
2019-02-12T06:27:19.312Z,22.07
2019-02-12T06:29:47.679Z,23.10
2019-02-12T06:32:16.172Z,20.50
2019-02-12T06:34:44.548Z,24.73
2019-02-12T06:37:12.930Z,22.03
2019-02-12T06:39:42.327Z,22.30
2019-02-12T06:42:10.596Z,21.50
2019-02-12T06:44:38.911Z,23.33
2019-02-12T06:47:07.693Z,21.73
2019-02-12T06:49:36.269Z,22.80
2019-02-12T06:52:05.031Z,20.90
2019-02-12T06:54:33.335Z,21.67
2019-02-12T06:57:01.698Z,21.73
2019-02-12T06:59:30.193Z,25.03
2019-02-12T07:02:18.105Z,23.20
2019-02-12T07:04:46.785Z,26.25
2019-02-12T07:07:25.707Z,22.40
2019-02-12T07:09:54.013Z,21.30
2019-02-12T07:12:25.755Z,20.77
2019-02-12T07:14:55.660Z,20.97
2019-02-12T07:17:43.753Z,22.07
2019-02-12T07:20:13.660Z,23.93
2019-02-12T07:22:56.004Z,21.23
2019-02-12T07:25:25.850Z,23.47
2019-02-12T07:27:58.526Z,22.60
2019-02-12T07:30:30.632Z,20.47
2019-02-12T07:33:18.594Z,22.20
2019-02-12T07:35:51.619Z,20.53
2019-02-12T07:38:40.130Z,22.50
2019-02-12T07:41:19.874Z,17.53
2019-02-12T07:44:01.601Z,22.13
2019-02-12T07:46:43.795Z,19.20
2019-02-12T07:49:14.093Z,19.30
2019-02-12T07:51:47.202Z,20.40
2019-02-12T07:54:20.059Z,18.43
2019-02-12T07:57:06.459Z,18.70
2019-02-12T07:59:42.851Z,19.63
2019-02-12T08:02:29.558Z,18.13
2019-02-12T08:05:14.938Z,18.73
2019-02-12T08:07:47.599Z,17.60
2019-02-12T08:10:33.985Z,19.80
2019-02-12T08:13:12.694Z,18.03
2019-02-12T08:15:42.611Z,17.10
2019-02-12T08:18:12.542Z,17.60
2019-02-12T08:20:54.418Z,18.87
2019-02-12T08:23:41.612Z,18.43
2019-02-12T08:26:11.652Z,19.80
2019-02-12T08:28:58.031Z,19.37
2019-02-12T08:31:42.804Z,17.03
2019-02-12T08:34:15.595Z,17.53
2019-02-12T08:36:45.509Z,17.93
2019-02-12T08:39:15.420Z,18.80
2019-02-12T08:41:45.255Z,18.00
2019-02-12T08:44:20.909Z,19.50
2019-02-12T08:46:50.706Z,18.53
2019-02-12T08:49:21.144Z,18.03
2019-02-12T08:51:51.062Z,17.07
2019-02-12T08:54:24.348Z,17.50
2019-02-12T08:57:03.583Z,16.63
2019-02-12T08:59:36.252Z,17.20
2019-02-12T09:02:15.159Z,18.70
2019-02-12T09:04:51.107Z,17.23
2019-02-12T09:07:24.008Z,17.53
2019-02-12T09:10:05.863Z,16.63
2019-02-12T09:12:45.042Z,16.83
2019-02-12T09:15:14.926Z,16.37
2019-02-12T09:17:46.583Z,17.50
2019-02-12T09:20:19.143Z,17.53
2019-02-12T09:22:49.072Z,19.03
2019-02-12T09:25:21.843Z,18.80
2019-02-12T09:28:09.968Z,18.10
2019-02-12T09:30:39.839Z,18.57
2019-02-12T09:33:12.545Z,16.80
2019-02-12T09:35:42.426Z,18.17
2019-02-12T09:38:24.795Z,17.87
2019-02-12T09:40:57.356Z,19.00
2019-02-12T09:43:43.595Z,18.00
2019-02-12T09:46:13.919Z,19.73
2019-02-12T09:48:43.725Z,19.10
2019-02-12T09:51:29.995Z,18.80
2019-02-12T09:54:16.580Z,15.63
2019-02-12T09:56:46.438Z,16.23
2019-02-12T09:59:22.059Z,18.17
2019-02-12T10:01:54.798Z,16.67
2019-02-12T10:04:42.650Z,15.50
2019-02-12T10:07:12.922Z,16.57
2019-02-12T10:09:51.497Z,15.57
2019-02-12T10:12:21.351Z,15.57
2019-02-12T10:14:54.000Z,15.40
2019-02-12T10:17:40.747Z,15.33
2019-02-12T10:20:27.454Z,15.57
2019-02-12T10:22:57.258Z,16.63
2019-02-12T10:25:25.731Z,14.70
2019-02-12T10:28:04.396Z,16.07
2019-02-12T10:30:40.218Z,14.00
2019-02-12T10:33:08.682Z,15.73
2019-02-12T10:35:37.023Z,14.33
2019-02-12T10:38:05.403Z,14.20
2019-02-12T10:40:33.884Z,14.13
2019-02-12T10:43:02.314Z,14.93
2019-02-12T10:45:30.698Z,14.30
2019-02-12T10:47:59.354Z,15.20
2019-02-12T10:50:27.654Z,14.70
2019-02-12T10:52:56.308Z,13.70
2019-02-12T10:55:24.663Z,15.43
2019-02-12T10:57:53.037Z,15.40
2019-02-12T11:00:21.615Z,14.93
2019-02-12T11:02:49.905Z,15.90
2019-02-12T11:05:18.298Z,16.17
2019-02-12T11:07:46.644Z,15.33
2019-02-12T11:10:15.120Z,15.90
2019-02-12T11:12:43.531Z,16.50
2019-02-12T11:15:11.875Z,16.70
2019-02-12T11:17:40.182Z,15.10
2019-02-12T11:20:09.687Z,15.10
2019-02-12T11:22:38.138Z,13.90
2019-02-12T11:25:07.229Z,15.10
2019-02-12T11:27:35.607Z,13.93
2019-02-12T11:30:05.549Z,14.57
2019-02-12T11:32:34.234Z,15.70
2019-02-12T11:35:02.590Z,14.13
2019-02-12T11:37:30.956Z,14.30
2019-02-12T11:39:59.387Z,13.17
2019-02-12T11:42:28.254Z,12.80
2019-02-12T11:44:56.598Z,12.33
2019-02-12T11:47:24.904Z,13.87
2019-02-12T11:49:53.231Z,11.53
2019-02-12T11:52:21.597Z,11.77
2019-02-12T11:54:50.344Z,12.23
2019-02-12T11:57:18.694Z,12.50
2019-02-12T11:59:47.049Z,13.00
2019-02-12T12:02:15.786Z,14.27
2019-02-12T12:04:44.096Z,13.03
2019-02-12T12:07:12.416Z,11.67
2019-02-12T12:09:41.221Z,12.70
2019-02-12T12:12:09.906Z,11.57
2019-02-12T12:14:38.236Z,11.97
2019-02-12T12:17:06.541Z,12.50
2019-02-12T12:19:34.901Z,11.63
2019-02-12T12:22:03.296Z,11.67
2019-02-12T12:24:31.656Z,12.10
2019-02-12T12:27:00.065Z,12.03
2019-02-12T12:29:28.442Z,12.33
2019-02-12T12:31:56.819Z,12.90
2019-02-12T12:34:25.501Z,12.40
2019-02-12T12:36:53.775Z,11.27
2019-02-12T12:39:22.536Z,11.23
2019-02-12T12:41:50.942Z,11.97
2019-02-12T12:44:19.254Z,11.10
2019-02-12T12:46:47.635Z,9.90
2019-02-12T12:49:16.049Z,10.53
2019-02-12T12:51:44.451Z,10.40
2019-02-12T12:54:13.253Z,9.20
2019-02-12T12:56:43.468Z,9.60
2019-02-12T12:59:11.803Z,10.33
2019-02-12T13:01:40.170Z,9.70
2019-02-12T13:04:08.551Z,10.17
2019-02-12T13:06:36.968Z,10.23
2019-02-12T13:09:05.836Z,10.37
2019-02-12T13:11:34.337Z,11.60
2019-02-12T13:14:02.624Z,11.10
2019-02-12T13:16:31.058Z,10.90
2019-02-12T13:18:59.382Z,11.47
2019-02-12T13:21:27.730Z,9.40
2019-02-12T13:23:56.215Z,8.30
2019-02-12T13:26:24.596Z,10.23
2019-02-12T13:28:52.882Z,10.20
2019-02-12T13:31:21.318Z,9.60
2019-02-12T13:33:49.705Z,10.30
2019-02-12T13:36:19.972Z,9.30
2019-02-12T13:38:49.200Z,9.60
2019-02-12T13:41:18.032Z,9.00
2019-02-12T13:43:46.330Z,9.80
2019-02-12T13:46:14.686Z,9.40
2019-02-12T13:48:43.134Z,8.83
2019-02-12T13:51:11.482Z,9.77
2019-02-12T13:53:39.890Z,9.50
2019-02-12T13:56:08.673Z,9.97
2019-02-12T13:58:37.155Z,11.00
2019-02-12T14:01:05.973Z,8.33
2019-02-12T14:03:34.317Z,8.87
2019-02-12T14:06:02.811Z,8.33
2019-02-12T14:08:31.064Z,9.43
2019-02-12T14:10:59.362Z,8.80
2019-02-12T14:13:27.643Z,8.50
2019-02-12T14:15:55.933Z,9.93
2019-02-12T14:18:24.375Z,9.70
2019-02-12T14:20:53.847Z,9.53
2019-02-12T14:23:22.146Z,9.60
2019-02-12T14:25:50.531Z,10.37
2019-02-12T14:28:18.966Z,10.87
2019-02-12T14:30:47.340Z,10.03
2019-02-12T14:33:16.102Z,9.60
2019-02-12T14:35:44.478Z,8.73
2019-02-12T14:38:12.772Z,9.43
2019-02-12T14:40:41.335Z,9.63
2019-02-12T14:43:14.099Z,10.93
2019-02-12T14:45:39.699Z,9.50
2019-02-12T14:48:09.200Z,8.70
2019-02-12T14:50:37.577Z,9.10
2019-02-12T14:53:05.956Z,9.60
2019-02-12T14:55:34.321Z,10.70
2019-02-12T14:58:02.602Z,9.90
2019-02-12T15:00:30.982Z,9.80
2019-02-12T15:02:59.460Z,9.27
2019-02-12T15:05:28.251Z,9.57
2019-02-12T15:07:56.532Z,9.20
2019-02-12T15:10:25.008Z,9.50
2019-02-12T15:12:53.461Z,11.40
2019-02-12T15:15:21.863Z,9.97
2019-02-12T15:17:50.545Z,9.87
2019-02-12T15:20:19.031Z,10.50
2019-02-12T15:22:47.503Z,9.30
2019-02-12T15:25:15.881Z,10.60
2019-02-12T15:27:44.363Z,9.30
2019-02-12T15:30:14.277Z,10.43
2019-02-12T15:32:42.688Z,10.60
2019-02-12T15:35:11.570Z,10.67
2019-02-12T15:37:40.040Z,10.10
2019-02-12T15:40:10.138Z,10.73
2019-02-12T15:42:38.615Z,10.53
2019-02-12T15:45:08.846Z,10.33
2019-02-12T15:47:37.418Z,12.40
2019-02-12T15:50:07.258Z,9.40
2019-02-12T15:52:35.567Z,10.30
2019-02-12T15:55:06.447Z,10.87
2019-02-12T15:57:36.290Z,10.40
2019-02-12T16:00:09.267Z,10.30
2019-02-12T16:02:37.747Z,10.20
2019-02-12T16:05:08.476Z,9.83
2019-02-12T16:07:37.726Z,9.80
2019-02-12T16:10:07.972Z,9.57
2019-02-12T16:12:36.352Z,10.63
2019-02-12T16:15:06.186Z,10.43
2019-02-12T16:17:35.377Z,9.97
2019-02-12T16:20:06.145Z,10.00
2019-02-12T16:22:35.006Z,10.70
2019-02-12T16:25:04.132Z,11.50
2019-02-12T16:27:32.550Z,11.83
2019-02-12T16:30:01.600Z,11.73
2019-02-12T16:32:30.016Z,10.77
2019-02-12T16:34:58.334Z,10.23
2019-02-12T16:37:26.771Z,11.00
2019-02-12T16:39:55.157Z,12.60
2019-02-12T16:42:24.064Z,13.10
2019-02-12T16:44:52.446Z,11.23
2019-02-12T16:47:20.729Z,12.73
2019-02-12T16:49:49.071Z,12.73
2019-02-12T16:52:20.861Z,13.00
2019-02-12T16:54:47.561Z,11.87
2019-02-12T16:57:15.867Z,13.10
2019-02-12T16:59:44.220Z,13.27
2019-02-12T17:02:12.724Z,12.57
2019-02-12T17:04:41.087Z,12.53
2019-02-12T17:07:09.884Z,12.50
2019-02-12T17:09:38.274Z,12.17
2019-02-12T17:12:06.948Z,13.00
2019-02-12T17:14:35.308Z,14.27
2019-02-12T17:17:03.779Z,12.73
2019-02-12T17:19:32.257Z,11.87
2019-02-12T17:22:00.545Z,13.40
2019-02-12T17:24:30.567Z,13.27
2019-02-12T17:26:58.820Z,11.20
2019-02-12T17:29:27.107Z,12.00
2019-02-12T17:31:55.471Z,11.33
2019-02-12T17:34:23.764Z,12.83
2019-02-12T17:36:52.341Z,13.00
2019-02-12T17:39:20.703Z,12.93
2019-02-12T17:41:49.315Z,11.73
2019-02-12T17:44:17.665Z,10.30
2019-02-12T17:46:45.980Z,13.20
2019-02-12T17:49:14.263Z,12.33
2019-02-12T17:51:42.626Z,12.93
2019-02-12T17:54:10.919Z,12.33
2019-02-12T17:56:39.749Z,12.73
2019-02-12T17:59:08.371Z,12.47
2019-02-12T18:01:37.259Z,13.43
2019-02-12T18:04:05.548Z,14.43
2019-02-12T18:06:33.884Z,12.47
2019-02-12T18:09:02.359Z,14.07
2019-02-12T18:11:31.144Z,14.97
2019-02-12T18:13:59.628Z,14.23
2019-02-12T18:16:27.956Z,13.60
2019-02-12T18:18:56.684Z,13.60
2019-02-12T18:21:24.983Z,13.37
2019-02-12T18:23:53.379Z,12.60
2019-02-12T18:26:21.852Z,14.00
2019-02-12T18:28:50.216Z,16.07
2019-02-12T18:31:19.112Z,13.30
2019-02-12T18:33:49.225Z,13.73
2019-02-12T18:36:17.636Z,14.00
2019-02-12T18:38:46.158Z,14.43
2019-02-12T18:41:14.668Z,13.60
2019-02-12T18:43:43.017Z,14.67
2019-02-12T18:46:11.495Z,13.83
2019-02-12T18:48:40.004Z,14.80
2019-02-12T18:51:08.357Z,15.53
2019-02-12T18:53:36.832Z,15.00
2019-02-12T18:56:05.204Z,16.73
2019-02-12T18:58:33.606Z,14.70
2019-02-12T19:01:02.371Z,15.53
2019-02-12T19:03:30.805Z,14.37
2019-02-12T19:05:59.259Z,14.87
2019-02-12T19:08:28.021Z,14.70
2019-02-12T19:10:56.625Z,14.80
2019-02-12T19:13:24.996Z,14.23
2019-02-12T19:15:53.485Z,15.90
2019-02-12T19:18:23.026Z,16.00
2019-02-12T19:20:51.437Z,14.87
2019-02-12T19:23:20.145Z,15.23
2019-02-12T19:25:48.447Z,15.57
2019-02-12T19:28:18.604Z,14.80
2019-02-12T19:30:47.024Z,16.37
2019-02-12T19:33:15.275Z,16.40
2019-02-12T19:35:43.643Z,15.13
2019-02-12T19:38:11.965Z,15.07
2019-02-12T19:40:40.339Z,15.40
2019-02-12T19:43:09.008Z,18.33
2019-02-12T19:45:37.382Z,16.53
2019-02-12T19:48:05.842Z,16.10
2019-02-12T19:50:34.348Z,17.73
2019-02-12T19:53:02.637Z,16.57
2019-02-12T19:55:31.075Z,16.60
2019-02-12T19:57:59.400Z,16.83
2019-02-12T20:00:27.825Z,17.20
2019-02-12T20:02:56.204Z,17.27
2019-02-12T20:05:24.576Z,15.73
2019-02-12T20:07:52.961Z,17.70
2019-02-12T20:10:21.875Z,18.10
2019-02-12T20:12:50.228Z,16.00
2019-02-12T20:15:22.185Z,16.83
2019-02-12T20:17:50.694Z,16.60
2019-02-12T20:20:19.445Z,16.40
2019-02-12T20:22:47.836Z,16.13
2019-02-12T20:25:16.234Z,17.70
2019-02-12T20:27:45.123Z,17.17
2019-02-12T20:30:20.880Z,17.97
2019-02-12T20:32:49.209Z,15.80
2019-02-12T20:35:18.863Z,17.47
2019-02-12T20:37:47.217Z,16.90
2019-02-12T20:40:15.705Z,16.77
2019-02-12T20:42:44.307Z,16.30
2019-02-12T20:45:16.569Z,16.67
2019-02-12T20:47:45.322Z,16.47
2019-02-12T20:50:18.004Z,16.33
2019-02-12T20:52:46.821Z,17.20
2019-02-12T20:55:15.194Z,17.70
2019-02-12T20:57:43.544Z,17.00
2019-02-12T21:00:16.441Z,16.60
2019-02-12T21:02:45.247Z,16.40
2019-02-12T21:05:14.961Z,16.43
2019-02-12T21:07:43.680Z,14.67
2019-02-12T21:10:13.536Z,17.20
2019-02-12T21:12:43.169Z,16.00
2019-02-12T21:15:13.097Z,15.80
2019-02-12T21:17:42.116Z,15.30
2019-02-12T21:20:11.265Z,15.93
2019-02-12T21:22:40.812Z,15.90
2019-02-12T21:25:10.793Z,16.30
2019-02-12T21:27:39.215Z,14.50
2019-02-12T21:30:13.077Z,15.57
2019-02-12T21:32:42.246Z,15.50
2019-02-12T21:35:12.334Z,14.37
2019-02-12T21:37:40.697Z,14.40
2019-02-12T21:40:10.781Z,14.37
2019-02-12T21:42:39.143Z,14.80
2019-02-12T21:45:09.384Z,14.77
2019-02-12T21:47:37.712Z,16.50
2019-02-12T21:50:07.775Z,15.53
2019-02-12T21:52:36.152Z,15.50
2019-02-12T21:55:15.034Z,16.43
2019-02-12T21:57:43.924Z,15.10
2019-02-12T22:00:13.931Z,14.67
2019-02-12T22:02:42.622Z,15.23
2019-02-12T22:05:11.979Z,15.40
2019-02-12T22:07:40.364Z,16.50
2019-02-12T22:10:13.026Z,16.00
2019-02-12T22:12:41.450Z,15.13
2019-02-12T22:15:11.441Z,16.67
2019-02-12T22:17:40.967Z,15.50
2019-02-12T22:20:10.984Z,15.50
2019-02-12T22:22:39.429Z,15.50
2019-02-12T22:25:08.759Z,14.87
2019-02-12T22:27:40.524Z,15.57
2019-02-12T22:30:08.597Z,14.83
2019-02-12T22:32:37.374Z,15.60
2019-02-12T22:35:06.161Z,15.43
2019-02-12T22:37:34.455Z,15.07
2019-02-12T22:40:03.295Z,15.43
2019-02-12T22:42:32.428Z,14.10
2019-02-12T22:45:01.519Z,15.40
2019-02-12T22:47:30.068Z,16.10
2019-02-12T22:49:58.353Z,15.50
2019-02-12T22:52:27.718Z,15.20
2019-02-12T22:54:56.167Z,14.77
2019-02-12T22:57:24.450Z,14.97
2019-02-12T22:59:52.743Z,14.07
2019-02-12T23:02:21.609Z,15.07
2019-02-12T23:04:49.866Z,15.03
2019-02-12T23:07:18.346Z,14.07
2019-02-12T23:09:46.629Z,14.90
2019-02-12T23:12:15.012Z,15.20
2019-02-12T23:14:43.401Z,14.90
2019-02-12T23:17:11.662Z,14.77
2019-02-12T23:19:40.360Z,15.23
2019-02-12T23:22:08.756Z,14.53
2019-02-12T23:24:37.085Z,14.43
2019-02-12T23:27:05.450Z,15.07
2019-02-12T23:29:33.832Z,15.20
2019-02-12T23:32:02.198Z,14.87
2019-02-12T23:34:30.592Z,15.43
2019-02-12T23:36:59.076Z,15.23
2019-02-12T23:39:27.475Z,15.23
2019-02-12T23:41:57.446Z,15.53
2019-02-12T23:44:25.756Z,13.80
2019-02-12T23:46:54.071Z,15.17
2019-02-12T23:49:22.388Z,14.20
2019-02-12T23:51:50.777Z,14.63
2019-02-12T23:54:19.107Z,14.93
2019-02-12T23:56:47.389Z,12.97
2019-02-12T23:59:15.705Z,14.60
